This is the latest recevied weather packets stored in our database for station/object WB3IGR. If no packets are shown the sender has not sent any weather packets the latest 1 day(s).
| Time | Temp. | Humidity | Pressure | Rain* | Wind** | Luminosity | Snow |
|---|---|---|---|---|---|---|---|
| 1778008297 | 28.33° C | 38% | 1009.8 hPa | 0 mm | 2.24 m/s, 335° | 681 W/m² | - |
| 1778007993 | 28.33° C | 37% | 1009.9 hPa | 0 mm | 4.47 m/s, 226° | 716 W/m² | - |
| 1778007692 | 28.33° C | 38% | 1010.1 hPa | 0 mm | 4.02 m/s, 248° | 685 W/m² | - |
| 1778007390 | 27.78° C | 40% | 1009.9 hPa | 0 mm | 1.79 m/s, 315° | 677 W/m² | - |
| 1778007086 | 27.78° C | 39% | 1010.2 hPa | 0 mm | 4.02 m/s, 191° | 719 W/m² | - |
| 1778006783 | 27.78° C | 37% | 1010 hPa | 0 mm | 5.36 m/s, 247° | 710 W/m² | - |
| 1778006480 | 27.78° C | 39% | 1010.1 hPa | 0 mm | 3.58 m/s, 314° | 689 W/m² | - |
| 1778006176 | 26.67° C | 40% | 1010.1 hPa | 0 mm | 3.13 m/s, 316° | 714 W/m² | - |
| 1778005874 | 27.22° C | 39% | 1010.2 hPa | 0 mm | 4.47 m/s, 316° | 741 W/m² | - |
| 1778005570 | 27.22° C | 40% | 1010.3 hPa | 0 mm | 1.34 m/s, 246° | 701 W/m² | - |
| 1778005267 | 27.22° C | 38% | 1010.4 hPa | 0 mm | 2.68 m/s, 317° | 704 W/m² | - |
| 1778004964 | 27.78° C | 38% | 1010.3 hPa | 0 mm | 2.24 m/s, 327° | 741 W/m² | - |
| 1778004661 | 27.22° C | 39% | 1010.5 hPa | 0 mm | 4.02 m/s, 223° | 727 W/m² | - |
| 1778004356 | 26.67° C | 39% | 1010.5 hPa | 0 mm | 3.58 m/s, 285° | 719 W/m² | - |
| 1778004055 | 26.67° C | 38% | 1010.7 hPa | 0 mm | 6.26 m/s, 251° | 714 W/m² | - |
| 1778003750 | 26.67° C | 38% | 1010.8 hPa | 0 mm | 2.24 m/s, 336° | 725 W/m² | - |
| 1778003447 | 27.22° C | 42% | 1010.6 hPa | 0 mm | 2.68 m/s, 298° | 718 W/m² | - |
| 1778003144 | 27.22° C | 45% | 1010.6 hPa | 0 mm | 1.79 m/s, 197° | 734 W/m² | - |
| 1778002840 | 27.22° C | 44% | 1010.7 hPa | 0 mm | 2.24 m/s, 240° | 771 W/m² | - |
| 1778002537 | 25.56° C | 45% | 1010.9 hPa | 0 mm | 1.34 m/s, 310° | 749 W/m² | - |
| 1778002234 | 26.67° C | 44% | 1010.9 hPa | 0 mm | 4.02 m/s, 178° | 136 W/m² | - |
| 1778001932 | 26.67° C | 44% | 1010.8 hPa | 0 mm | 1.79 m/s, 258° | 735 W/m² | - |
| 1778001628 | 26.67° C | 45% | 1010.8 hPa | 0 mm | 3.13 m/s, 248° | 766 W/m² | - |
| 1778001322 | 26.67° C | 43% | 1011.1 hPa | 0 mm | 2.68 m/s, 328° | 763 W/m² | - |
| 1778001020 | 26.11° C | 45% | 1011.1 hPa | 0 mm | 4.92 m/s, 231° | 752 W/m² | - |
* Rain latest hour (hover to see other rain measurements)
** Current wind speed in m/s (hover to see current wind gust speed)